Terminal Aerodrome Forecast
Issued by NWS

Home | Current Version | Previous Version | Text Only | Print | Product List | Glossary On
Versions: 1 2 3 4 5 6 7 8 9 10 11 12 13 14
000
FTUS45 KRIW 230500
TAFRKS
TAF
KRKS 230524Z 2306/2406 27007KT P6SM BKN070
     FM231500 25008KT P6SM SCT070
     FM231700 26014G20KT P6SM SCT070
     FM240200 24008KT P6SM SKC=

USA.gov is the U.S. government's official web portal to all federal, state and local government web resources and services.